sensor_id;sensor_type;location;lat;lon;timestamp;P1;durP1;ratioP1;P2;durP2;ratioP2
2674;SDS011;1347;42.122;24.746;2023-02-10T00:01:12;20.27;;;11.90;;
2674;SDS011;1347;42.122;24.746;2023-02-10T00:03:42;20.50;;;13.43;;
2674;SDS011;1347;42.122;24.746;2023-02-10T00:06:09;23.27;;;15.17;;
2674;SDS011;1347;42.122;24.746;2023-02-10T00:08:37;24.60;;;14.97;;
2674;SDS011;1347;42.122;24.746;2023-02-10T00:11:06;26.40;;;14.13;;
2674;SDS011;1347;42.122;24.746;2023-02-10T00:13:35;26.73;;;14.13;;
2674;SDS011;1347;42.122;24.746;2023-02-10T00:16:03;26.80;;;16.47;;
2674;SDS011;1347;42.122;24.746;2023-02-10T00:18:31;25.40;;;15.20;;
2674;SDS011;1347;42.122;24.746;2023-02-10T00:21:06;26.87;;;15.17;;
2674;SDS011;1347;42.122;24.746;2023-02-10T00:23:33;23.83;;;14.20;;
2674;SDS011;1347;42.122;24.746;2023-02-10T00:26:01;30.87;;;15.47;;
2674;SDS011;1347;42.122;24.746;2023-02-10T00:28:29;27.30;;;13.07;;
2674;SDS011;1347;42.122;24.746;2023-02-10T00:30:56;22.93;;;14.57;;
2674;SDS011;1347;42.122;24.746;2023-02-10T00:33:23;31.10;;;16.97;;
2674;SDS011;1347;42.122;24.746;2023-02-10T00:35:50;31.07;;;18.43;;
2674;SDS011;1347;42.122;24.746;2023-02-10T00:38:18;31.20;;;17.07;;
2674;SDS011;1347;42.122;24.746;2023-02-10T00:40:45;31.00;;;17.97;;
2674;SDS011;1347;42.122;24.746;2023-02-10T00:43:12;31.07;;;19.27;;
2674;SDS011;1347;42.122;24.746;2023-02-10T00:45:39;32.20;;;17.60;;
2674;SDS011;1347;42.122;24.746;2023-02-10T00:48:06;33.80;;;19.30;;
2674;SDS011;1347;42.122;24.746;2023-02-10T00:50:32;32.27;;;19.60;;
2674;SDS011;1347;42.122;24.746;2023-02-10T00:52:59;39.70;;;19.90;;
2674;SDS011;1347;42.122;24.746;2023-02-10T00:55:28;37.77;;;18.90;;
2674;SDS011;1347;42.122;24.746;2023-02-10T00:57:54;35.43;;;20.70;;
2674;SDS011;1347;42.122;24.746;2023-02-10T01:00:21;30.07;;;19.33;;
2674;SDS011;1347;42.122;24.746;2023-02-10T01:02:48;33.20;;;20.10;;
2674;SDS011;1347;42.122;24.746;2023-02-10T01:05:15;37.50;;;19.27;;
2674;SDS011;1347;42.122;24.746;2023-02-10T01:07:42;36.73;;;19.93;;
2674;SDS011;1347;42.122;24.746;2023-02-10T01:10:09;30.70;;;17.30;;
2674;SDS011;1347;42.122;24.746;2023-02-10T01:12:37;33.10;;;19.40;;
2674;SDS011;1347;42.122;24.746;2023-02-10T01:15:04;31.80;;;18.47;;
2674;SDS011;1347;42.122;24.746;2023-02-10T01:17:31;41.50;;;21.33;;
2674;SDS011;1347;42.122;24.746;2023-02-10T01:19:58;32.00;;;19.77;;
2674;SDS011;1347;42.122;24.746;2023-02-10T01:22:25;33.63;;;18.97;;
2674;SDS011;1347;42.122;24.746;2023-02-10T01:24:52;33.00;;;20.30;;
2674;SDS011;1347;42.122;24.746;2023-02-10T01:27:19;39.23;;;18.73;;
2674;SDS011;1347;42.122;24.746;2023-02-10T01:29:47;33.03;;;18.93;;
2674;SDS011;1347;42.122;24.746;2023-02-10T01:32:14;38.23;;;20.93;;
2674;SDS011;1347;42.122;24.746;2023-02-10T01:34:41;40.47;;;18.53;;
2674;SDS011;1347;42.122;24.746;2023-02-10T01:37:08;38.67;;;18.90;;
2674;SDS011;1347;42.122;24.746;2023-02-10T01:39:35;29.33;;;18.27;;
2674;SDS011;1347;42.122;24.746;2023-02-10T01:42:02;31.50;;;21.20;;
2674;SDS011;1347;42.122;24.746;2023-02-10T01:47:40;30.63;;;18.90;;
2674;SDS011;1347;42.122;24.746;2023-02-10T01:50:07;34.80;;;18.20;;
2674;SDS011;1347;42.122;24.746;2023-02-10T01:52:35;32.97;;;19.37;;
2674;SDS011;1347;42.122;24.746;2023-02-10T01:55:03;38.47;;;19.93;;
2674;SDS011;1347;42.122;24.746;2023-02-10T01:57:31;39.83;;;19.93;;
2674;SDS011;1347;42.122;24.746;2023-02-10T02:00:00;44.77;;;20.87;;
2674;SDS011;1347;42.122;24.746;2023-02-10T02:02:29;30.43;;;19.87;;
2674;SDS011;1347;42.122;24.746;2023-02-10T02:05:02;29.07;;;18.20;;
2674;SDS011;1347;42.122;24.746;2023-02-10T02:07:32;33.07;;;19.63;;
2674;SDS011;1347;42.122;24.746;2023-02-10T02:10:03;41.30;;;20.80;;
2674;SDS011;1347;42.122;24.746;2023-02-10T02:12:33;39.93;;;20.07;;
2674;SDS011;1347;42.122;24.746;2023-02-10T02:15:12;35.33;;;19.83;;
2674;SDS011;1347;42.122;24.746;2023-02-10T02:17:48;41.30;;;22.53;;
2674;SDS011;1347;42.122;24.746;2023-02-10T02:20:27;42.03;;;18.90;;
2674;SDS011;1347;42.122;24.746;2023-02-10T02:23:12;43.33;;;21.60;;
2674;SDS011;1347;42.122;24.746;2023-02-10T02:25:52;51.23;;;21.23;;
2674;SDS011;1347;42.122;24.746;2023-02-10T02:28:34;37.97;;;20.67;;
2674;SDS011;1347;42.122;24.746;2023-02-10T02:34:11;39.80;;;19.20;;
2674;SDS011;1347;42.122;24.746;2023-02-10T02:36:43;36.53;;;20.67;;
2674;SDS011;1347;42.122;24.746;2023-02-10T02:39:16;32.43;;;17.90;;
2674;SDS011;1347;42.122;24.746;2023-02-10T02:41:43;43.40;;;23.67;;
2674;SDS011;1347;42.122;24.746;2023-02-10T02:44:10;42.30;;;21.27;;
2674;SDS011;1347;42.122;24.746;2023-02-10T02:46:41;42.60;;;20.43;;
2674;SDS011;1347;42.122;24.746;2023-02-10T02:49:25;44.20;;;20.50;;
2674;SDS011;1347;42.122;24.746;2023-02-10T02:51:57;32.13;;;19.60;;
2674;SDS011;1347;42.122;24.746;2023-02-10T02:54:30;42.70;;;19.47;;
2674;SDS011;1347;42.122;24.746;2023-02-10T02:57:06;35.57;;;19.67;;
2674;SDS011;1347;42.122;24.746;2023-02-10T02:59:39;59.07;;;24.97;;
2674;SDS011;1347;42.122;24.746;2023-02-10T03:02:11;38.70;;;21.63;;
2674;SDS011;1347;42.122;24.746;2023-02-10T03:04:40;50.20;;;21.50;;
2674;SDS011;1347;42.122;24.746;2023-02-10T03:07:08;48.43;;;21.73;;
2674;SDS011;1347;42.122;24.746;2023-02-10T03:09:35;37.87;;;21.40;;
2674;SDS011;1347;42.122;24.746;2023-02-10T03:12:02;33.93;;;20.03;;
2674;SDS011;1347;42.122;24.746;2023-02-10T03:14:29;26.97;;;17.03;;
2674;SDS011;1347;42.122;24.746;2023-02-10T03:16:56;36.73;;;20.17;;
2674;SDS011;1347;42.122;24.746;2023-02-10T03:19:24;38.30;;;19.60;;
2674;SDS011;1347;42.122;24.746;2023-02-10T03:21:51;37.83;;;18.57;;
2674;SDS011;1347;42.122;24.746;2023-02-10T03:24:18;32.57;;;16.30;;
2674;SDS011;1347;42.122;24.746;2023-02-10T03:26:45;27.00;;;16.90;;
2674;SDS011;1347;42.122;24.746;2023-02-10T03:29:12;32.00;;;19.57;;
2674;SDS011;1347;42.122;24.746;2023-02-10T03:31:40;34.00;;;18.17;;
2674;SDS011;1347;42.122;24.746;2023-02-10T03:34:07;29.00;;;17.40;;
2674;SDS011;1347;42.122;24.746;2023-02-10T03:36:35;26.30;;;15.67;;
2674;SDS011;1347;42.122;24.746;2023-02-10T03:39:03;34.77;;;19.27;;
2674;SDS011;1347;42.122;24.746;2023-02-10T03:41:30;30.73;;;18.17;;
2674;SDS011;1347;42.122;24.746;2023-02-10T03:43:57;38.87;;;20.60;;
2674;SDS011;1347;42.122;24.746;2023-02-10T03:46:24;41.57;;;19.57;;
2674;SDS011;1347;42.122;24.746;2023-02-10T03:48:50;36.60;;;19.60;;
2674;SDS011;1347;42.122;24.746;2023-02-10T03:51:17;33.50;;;18.80;;
2674;SDS011;1347;42.122;24.746;2023-02-10T03:53:45;39.13;;;19.70;;
2674;SDS011;1347;42.122;24.746;2023-02-10T03:56:12;35.03;;;19.90;;
2674;SDS011;1347;42.122;24.746;2023-02-10T03:58:39;37.73;;;20.83;;
2674;SDS011;1347;42.122;24.746;2023-02-10T04:01:10;36.00;;;20.53;;
2674;SDS011;1347;42.122;24.746;2023-02-10T04:03:38;37.73;;;19.03;;
2674;SDS011;1347;42.122;24.746;2023-02-10T04:06:05;32.53;;;19.53;;
2674;SDS011;1347;42.122;24.746;2023-02-10T04:08:33;35.50;;;20.57;;
2674;SDS011;1347;42.122;24.746;2023-02-10T04:11:02;43.00;;;20.73;;
2674;SDS011;1347;42.122;24.746;2023-02-10T04:13:29;42.60;;;19.47;;
2674;SDS011;1347;42.122;24.746;2023-02-10T04:16:00;39.97;;;20.27;;
2674;SDS011;1347;42.122;24.746;2023-02-10T04:18:28;35.67;;;19.27;;
2674;SDS011;1347;42.122;24.746;2023-02-10T04:20:56;34.63;;;20.67;;
2674;SDS011;1347;42.122;24.746;2023-02-10T04:23:23;35.40;;;21.03;;
2674;SDS011;1347;42.122;24.746;2023-02-10T04:25:50;32.50;;;18.87;;
2674;SDS011;1347;42.122;24.746;2023-02-10T04:28:18;26.33;;;17.07;;
2674;SDS011;1347;42.122;24.746;2023-02-10T04:30:45;32.43;;;19.57;;
2674;SDS011;1347;42.122;24.746;2023-02-10T04:33:12;40.97;;;22.33;;
2674;SDS011;1347;42.122;24.746;2023-02-10T04:35:39;34.80;;;18.10;;
2674;SDS011;1347;42.122;24.746;2023-02-10T04:38:05;32.63;;;18.60;;
2674;SDS011;1347;42.122;24.746;2023-02-10T04:40:32;34.47;;;20.70;;
2674;SDS011;1347;42.122;24.746;2023-02-10T04:42:59;41.73;;;22.10;;
2674;SDS011;1347;42.122;24.746;2023-02-10T04:45:27;46.23;;;20.60;;
2674;SDS011;1347;42.122;24.746;2023-02-10T04:47:54;32.63;;;18.00;;
2674;SDS011;1347;42.122;24.746;2023-02-10T04:50:21;40.00;;;20.77;;
2674;SDS011;1347;42.122;24.746;2023-02-10T04:52:48;43.23;;;21.43;;
2674;SDS011;1347;42.122;24.746;2023-02-10T04:55:15;37.60;;;20.00;;
2674;SDS011;1347;42.122;24.746;2023-02-10T04:57:42;39.10;;;20.43;;
2674;SDS011;1347;42.122;24.746;2023-02-10T05:00:09;33.40;;;18.27;;
2674;SDS011;1347;42.122;24.746;2023-02-10T05:02:39;40.37;;;22.60;;
2674;SDS011;1347;42.122;24.746;2023-02-10T05:05:06;32.47;;;19.70;;
2674;SDS011;1347;42.122;24.746;2023-02-10T05:07:35;41.10;;;21.13;;
2674;SDS011;1347;42.122;24.746;2023-02-10T05:10:02;36.87;;;18.87;;
2674;SDS011;1347;42.122;24.746;2023-02-10T05:12:30;33.63;;;20.00;;
2674;SDS011;1347;42.122;24.746;2023-02-10T05:14:57;39.93;;;20.67;;
2674;SDS011;1347;42.122;24.746;2023-02-10T05:17:23;31.87;;;19.10;;
2674;SDS011;1347;42.122;24.746;2023-02-10T05:19:52;41.30;;;23.40;;
2674;SDS011;1347;42.122;24.746;2023-02-10T05:22:19;34.30;;;20.43;;
2674;SDS011;1347;42.122;24.746;2023-02-10T05:24:47;36.00;;;20.37;;
2674;SDS011;1347;42.122;24.746;2023-02-10T05:27:16;46.07;;;20.60;;
2674;SDS011;1347;42.122;24.746;2023-02-10T05:29:44;38.20;;;21.67;;
2674;SDS011;1347;42.122;24.746;2023-02-10T05:32:10;39.03;;;21.33;;
2674;SDS011;1347;42.122;24.746;2023-02-10T05:34:37;38.53;;;20.97;;
2674;SDS011;1347;42.122;24.746;2023-02-10T05:37:05;33.87;;;19.80;;
2674;SDS011;1347;42.122;24.746;2023-02-10T05:39:32;33.87;;;18.30;;
2674;SDS011;1347;42.122;24.746;2023-02-10T05:41:59;37.27;;;19.83;;
2674;SDS011;1347;42.122;24.746;2023-02-10T05:44:27;28.83;;;17.60;;
2674;SDS011;1347;42.122;24.746;2023-02-10T05:46:54;38.33;;;18.30;;
2674;SDS011;1347;42.122;24.746;2023-02-10T05:49:21;31.50;;;18.00;;
2674;SDS011;1347;42.122;24.746;2023-02-10T05:51:48;26.40;;;15.73;;
2674;SDS011;1347;42.122;24.746;2023-02-10T05:54:16;30.37;;;16.93;;
2674;SDS011;1347;42.122;24.746;2023-02-10T05:56:43;27.87;;;14.73;;
2674;SDS011;1347;42.122;24.746;2023-02-10T05:59:10;25.57;;;16.40;;
2674;SDS011;1347;42.122;24.746;2023-02-10T06:01:39;26.23;;;15.63;;
2674;SDS011;1347;42.122;24.746;2023-02-10T06:04:07;28.03;;;17.70;;
2674;SDS011;1347;42.122;24.746;2023-02-10T06:06:34;31.40;;;17.80;;
2674;SDS011;1347;42.122;24.746;2023-02-10T06:09:01;29.87;;;18.20;;
2674;SDS011;1347;42.122;24.746;2023-02-10T06:11:29;32.37;;;16.97;;
2674;SDS011;1347;42.122;24.746;2023-02-10T06:13:56;36.33;;;19.07;;
2674;SDS011;1347;42.122;24.746;2023-02-10T06:16:23;36.47;;;17.67;;
2674;SDS011;1347;42.122;24.746;2023-02-10T06:18:50;28.83;;;17.57;;
2674;SDS011;1347;42.122;24.746;2023-02-10T06:21:17;30.80;;;17.93;;
2674;SDS011;1347;42.122;24.746;2023-02-10T06:23:44;31.13;;;20.03;;
2674;SDS011;1347;42.122;24.746;2023-02-10T06:26:11;27.70;;;18.07;;
2674;SDS011;1347;42.122;24.746;2023-02-10T06:28:39;27.30;;;15.53;;
2674;SDS011;1347;42.122;24.746;2023-02-10T06:31:06;26.10;;;13.87;;
2674;SDS011;1347;42.122;24.746;2023-02-10T06:33:33;20.10;;;15.03;;
2674;SDS011;1347;42.122;24.746;2023-02-10T06:36:01;28.37;;;16.50;;
2674;SDS011;1347;42.122;24.746;2023-02-10T06:38:30;28.90;;;18.60;;
2674;SDS011;1347;42.122;24.746;2023-02-10T06:40:57;29.07;;;17.60;;
2674;SDS011;1347;42.122;24.746;2023-02-10T06:43:24;27.20;;;15.97;;
2674;SDS011;1347;42.122;24.746;2023-02-10T06:45:53;31.40;;;16.50;;
2674;SDS011;1347;42.122;24.746;2023-02-10T06:48:20;26.03;;;14.70;;
2674;SDS011;1347;42.122;24.746;2023-02-10T06:50:46;23.93;;;14.17;;
2674;SDS011;1347;42.122;24.746;2023-02-10T06:53:13;23.17;;;13.77;;
2674;SDS011;1347;42.122;24.746;2023-02-10T06:55:40;23.00;;;12.63;;
2674;SDS011;1347;42.122;24.746;2023-02-10T06:58:08;21.20;;;12.83;;
2674;SDS011;1347;42.122;24.746;2023-02-10T07:00:35;21.50;;;13.40;;
2674;SDS011;1347;42.122;24.746;2023-02-10T07:03:04;27.40;;;13.70;;
2674;SDS011;1347;42.122;24.746;2023-02-10T07:05:31;27.77;;;12.50;;
2674;SDS011;1347;42.122;24.746;2023-02-10T07:08:00;23.70;;;14.53;;
2674;SDS011;1347;42.122;24.746;2023-02-10T07:10:28;26.07;;;13.93;;
2674;SDS011;1347;42.122;24.746;2023-02-10T07:12:56;24.20;;;12.67;;
2674;SDS011;1347;42.122;24.746;2023-02-10T07:15:23;19.40;;;12.67;;
2674;SDS011;1347;42.122;24.746;2023-02-10T07:17:50;19.63;;;11.80;;
2674;SDS011;1347;42.122;24.746;2023-02-10T07:20:18;26.07;;;12.67;;
2674;SDS011;1347;42.122;24.746;2023-02-10T07:22:46;18.77;;;12.67;;
2674;SDS011;1347;42.122;24.746;2023-02-10T07:25:13;18.10;;;11.97;;
2674;SDS011;1347;42.122;24.746;2023-02-10T07:27:40;24.37;;;13.57;;
2674;SDS011;1347;42.122;24.746;2023-02-10T07:30:07;21.77;;;12.23;;
2674;SDS011;1347;42.122;24.746;2023-02-10T07:32:35;20.93;;;11.93;;
2674;SDS011;1347;42.122;24.746;2023-02-10T07:35:02;44.10;;;17.37;;
2674;SDS011;1347;42.122;24.746;2023-02-10T07:37:30;37.70;;;19.20;;
2674;SDS011;1347;42.122;24.746;2023-02-10T07:39:57;18.37;;;13.63;;
2674;SDS011;1347;42.122;24.746;2023-02-10T07:42:24;22.67;;;13.77;;
2674;SDS011;1347;42.122;24.746;2023-02-10T07:44:51;23.63;;;14.07;;
2674;SDS011;1347;42.122;24.746;2023-02-10T07:47:18;29.60;;;16.83;;
2674;SDS011;1347;42.122;24.746;2023-02-10T07:49:45;26.47;;;16.13;;
2674;SDS011;1347;42.122;24.746;2023-02-10T07:52:12;20.47;;;15.27;;
2674;SDS011;1347;42.122;24.746;2023-02-10T07:54:40;21.00;;;16.10;;
2674;SDS011;1347;42.122;24.746;2023-02-10T07:57:07;23.23;;;14.57;;
2674;SDS011;1347;42.122;24.746;2023-02-10T07:59:34;24.10;;;16.53;;
2674;SDS011;1347;42.122;24.746;2023-02-10T08:02:01;22.87;;;14.90;;
2674;SDS011;1347;42.122;24.746;2023-02-10T08:04:29;25.60;;;17.20;;
2674;SDS011;1347;42.122;24.746;2023-02-10T08:06:56;32.37;;;18.10;;
2674;SDS011;1347;42.122;24.746;2023-02-10T08:09:24;22.43;;;16.07;;
2674;SDS011;1347;42.122;24.746;2023-02-10T08:11:52;21.90;;;15.47;;
2674;SDS011;1347;42.122;24.746;2023-02-10T08:14:19;22.00;;;15.87;;
2674;SDS011;1347;42.122;24.746;2023-02-10T08:16:46;22.57;;;15.60;;
2674;SDS011;1347;42.122;24.746;2023-02-10T08:19:13;18.90;;;14.20;;
2674;SDS011;1347;42.122;24.746;2023-02-10T08:21:40;19.17;;;15.30;;
2674;SDS011;1347;42.122;24.746;2023-02-10T08:24:07;19.20;;;15.53;;
2674;SDS011;1347;42.122;24.746;2023-02-10T08:26:34;17.90;;;14.60;;
2674;SDS011;1347;42.122;24.746;2023-02-10T08:29:02;23.87;;;14.93;;
2674;SDS011;1347;42.122;24.746;2023-02-10T08:31:29;20.27;;;15.00;;
2674;SDS011;1347;42.122;24.746;2023-02-10T08:33:56;20.63;;;14.77;;
2674;SDS011;1347;42.122;24.746;2023-02-10T08:36:23;19.90;;;14.87;;
2674;SDS011;1347;42.122;24.746;2023-02-10T08:38:50;22.60;;;15.63;;
2674;SDS011;1347;42.122;24.746;2023-02-10T08:41:17;16.07;;;14.33;;
2674;SDS011;1347;42.122;24.746;2023-02-10T08:43:45;22.50;;;16.37;;
2674;SDS011;1347;42.122;24.746;2023-02-10T08:46:13;15.83;;;14.23;;
2674;SDS011;1347;42.122;24.746;2023-02-10T08:48:40;18.07;;;15.27;;
2674;SDS011;1347;42.122;24.746;2023-02-10T08:51:08;16.47;;;14.80;;
2674;SDS011;1347;42.122;24.746;2023-02-10T08:53:36;16.00;;;14.30;;
2674;SDS011;1347;42.122;24.746;2023-02-10T08:56:04;17.90;;;14.83;;
2674;SDS011;1347;42.122;24.746;2023-02-10T08:58:32;19.00;;;15.47;;
2674;SDS011;1347;42.122;24.746;2023-02-10T09:00:59;18.70;;;14.90;;
2674;SDS011;1347;42.122;24.746;2023-02-10T09:03:29;17.30;;;15.60;;
2674;SDS011;1347;42.122;24.746;2023-02-10T09:05:56;16.90;;;15.20;;
2674;SDS011;1347;42.122;24.746;2023-02-10T09:08:23;16.40;;;14.73;;
2674;SDS011;1347;42.122;24.746;2023-02-10T09:10:49;16.70;;;15.10;;
2674;SDS011;1347;42.122;24.746;2023-02-10T09:13:16;17.73;;;15.80;;
2674;SDS011;1347;42.122;24.746;2023-02-10T09:15:43;25.23;;;16.53;;
2674;SDS011;1347;42.122;24.746;2023-02-10T09:18:10;17.33;;;15.17;;
2674;SDS011;1347;42.122;24.746;2023-02-10T09:20:39;17.60;;;15.00;;
2674;SDS011;1347;42.122;24.746;2023-02-10T09:23:06;17.13;;;15.07;;
2674;SDS011;1347;42.122;24.746;2023-02-10T09:25:32;15.83;;;14.13;;
2674;SDS011;1347;42.122;24.746;2023-02-10T09:28:00;19.90;;;16.10;;
2674;SDS011;1347;42.122;24.746;2023-02-10T09:30:27;19.27;;;17.03;;
2674;SDS011;1347;42.122;24.746;2023-02-10T09:32:54;20.53;;;14.30;;
2674;SDS011;1347;42.122;24.746;2023-02-10T09:35:21;16.63;;;13.70;;
2674;SDS011;1347;42.122;24.746;2023-02-10T09:37:49;13.00;;;11.70;;
2674;SDS011;1347;42.122;24.746;2023-02-10T09:40:16;15.03;;;13.43;;
2674;SDS011;1347;42.122;24.746;2023-02-10T09:42:53;17.60;;;15.23;;
2674;SDS011;1347;42.122;24.746;2023-02-10T09:45:31;16.47;;;13.73;;
2674;SDS011;1347;42.122;24.746;2023-02-10T09:48:05;17.23;;;14.87;;
2674;SDS011;1347;42.122;24.746;2023-02-10T09:50:51;15.03;;;13.43;;
2674;SDS011;1347;42.122;24.746;2023-02-10T09:53:26;18.87;;;16.57;;
2674;SDS011;1347;42.122;24.746;2023-02-10T09:55:55;20.37;;;17.57;;
2674;SDS011;1347;42.122;24.746;2023-02-10T09:58:26;15.83;;;13.80;;
2674;SDS011;1347;42.122;24.746;2023-02-10T10:00:59;16.00;;;13.97;;
2674;SDS011;1347;42.122;24.746;2023-02-10T10:03:34;18.33;;;15.80;;
2674;SDS011;1347;42.122;24.746;2023-02-10T10:06:19;16.17;;;13.77;;
2674;SDS011;1347;42.122;24.746;2023-02-10T10:08:58;20.37;;;16.00;;
2674;SDS011;1347;42.122;24.746;2023-02-10T10:11:33;18.13;;;15.30;;
2674;SDS011;1347;42.122;24.746;2023-02-10T10:14:03;20.23;;;15.10;;
2674;SDS011;1347;42.122;24.746;2023-02-10T10:19:53;18.17;;;14.60;;
2674;SDS011;1347;42.122;24.746;2023-02-10T10:22:31;18.13;;;15.17;;
2674;SDS011;1347;42.122;24.746;2023-02-10T10:25:20;15.30;;;13.40;;
2674;SDS011;1347;42.122;24.746;2023-02-10T10:28:00;15.07;;;13.60;;
2674;SDS011;1347;42.122;24.746;2023-02-10T10:30:37;16.43;;;13.40;;
2674;SDS011;1347;42.122;24.746;2023-02-10T10:33:14;17.70;;;14.43;;
2674;SDS011;1347;42.122;24.746;2023-02-10T10:35:48;18.30;;;15.80;;
2674;SDS011;1347;42.122;24.746;2023-02-10T10:38:18;21.63;;;15.57;;
2674;SDS011;1347;42.122;24.746;2023-02-10T10:40:50;21.43;;;16.40;;
2674;SDS011;1347;42.122;24.746;2023-02-10T10:43:20;16.47;;;14.77;;
2674;SDS011;1347;42.122;24.746;2023-02-10T10:45:52;17.83;;;13.57;;
2674;SDS011;1347;42.122;24.746;2023-02-10T10:48:22;13.37;;;11.77;;
2674;SDS011;1347;42.122;24.746;2023-02-10T10:50:52;17.60;;;14.10;;
2674;SDS011;1347;42.122;24.746;2023-02-10T10:53:25;17.80;;;13.50;;
2674;SDS011;1347;42.122;24.746;2023-02-10T10:56:03;12.73;;;11.13;;
2674;SDS011;1347;42.122;24.746;2023-02-10T10:58:35;17.70;;;13.07;;
2674;SDS011;1347;42.122;24.746;2023-02-10T11:01:03;20.90;;;13.67;;
2674;SDS011;1347;42.122;24.746;2023-02-10T11:03:30;17.90;;;12.70;;
2674;SDS011;1347;42.122;24.746;2023-02-10T11:06:00;16.23;;;11.97;;
2674;SDS011;1347;42.122;24.746;2023-02-10T11:08:32;17.43;;;13.80;;
2674;SDS011;1347;42.122;24.746;2023-02-10T11:11:04;18.20;;;12.60;;
2674;SDS011;1347;42.122;24.746;2023-02-10T11:13:35;13.40;;;11.73;;
2674;SDS011;1347;42.122;24.746;2023-02-10T11:16:06;17.57;;;12.70;;
2674;SDS011;1347;42.122;24.746;2023-02-10T11:18:37;14.03;;;11.40;;
2674;SDS011;1347;42.122;24.746;2023-02-10T11:21:05;15.20;;;12.17;;
2674;SDS011;1347;42.122;24.746;2023-02-10T11:23:35;14.47;;;10.80;;
2674;SDS011;1347;42.122;24.746;2023-02-10T11:26:18;18.73;;;11.87;;
2674;SDS011;1347;42.122;24.746;2023-02-10T11:28:47;17.13;;;11.83;;
2674;SDS011;1347;42.122;24.746;2023-02-10T11:31:22;15.23;;;11.57;;
2674;SDS011;1347;42.122;24.746;2023-02-10T11:33:57;13.80;;;11.20;;
2674;SDS011;1347;42.122;24.746;2023-02-10T11:36:30;12.93;;;9.80;;
2674;SDS011;1347;42.122;24.746;2023-02-10T11:39:03;14.60;;;11.53;;
2674;SDS011;1347;42.122;24.746;2023-02-10T11:41:33;18.50;;;12.00;;
2674;SDS011;1347;42.122;24.746;2023-02-10T11:44:00;15.23;;;11.73;;
2674;SDS011;1347;42.122;24.746;2023-02-10T11:46:30;13.27;;;11.73;;
2674;SDS011;1347;42.122;24.746;2023-02-10T11:48:58;15.60;;;11.83;;
2674;SDS011;1347;42.122;24.746;2023-02-10T11:51:27;17.30;;;11.70;;
2674;SDS011;1347;42.122;24.746;2023-02-10T11:53:55;12.37;;;10.50;;
2674;SDS011;1347;42.122;24.746;2023-02-10T11:56:24;14.50;;;10.77;;
2674;SDS011;1347;42.122;24.746;2023-02-10T11:59:18;16.00;;;11.63;;
2674;SDS011;1347;42.122;24.746;2023-02-10T12:01:56;14.10;;;10.50;;
2674;SDS011;1347;42.122;24.746;2023-02-10T12:04:32;19.13;;;12.33;;
2674;SDS011;1347;42.122;24.746;2023-02-10T12:07:28;14.00;;;11.03;;
2674;SDS011;1347;42.122;24.746;2023-02-10T12:10:08;14.30;;;10.60;;
2674;SDS011;1347;42.122;24.746;2023-02-10T12:12:44;14.63;;;9.83;;
2674;SDS011;1347;42.122;24.746;2023-02-10T12:15:19;16.13;;;10.77;;
2674;SDS011;1347;42.122;24.746;2023-02-10T12:18:00;14.97;;;11.53;;
2674;SDS011;1347;42.122;24.746;2023-02-10T12:20:52;14.23;;;11.33;;
2674;SDS011;1347;42.122;24.746;2023-02-10T12:23:39;19.60;;;13.67;;
2674;SDS011;1347;42.122;24.746;2023-02-10T12:26:19;16.03;;;11.53;;
2674;SDS011;1347;42.122;24.746;2023-02-10T12:28:54;15.13;;;11.83;;
2674;SDS011;1347;42.122;24.746;2023-02-10T12:31:34;21.60;;;15.93;;
2674;SDS011;1347;42.122;24.746;2023-02-10T12:34:13;12.83;;;11.47;;
2674;SDS011;1347;42.122;24.746;2023-02-10T12:36:52;16.13;;;14.17;;
2674;SDS011;1347;42.122;24.746;2023-02-10T12:39:31;17.37;;;12.63;;
2674;SDS011;1347;42.122;24.746;2023-02-10T12:42:09;18.77;;;13.33;;
2674;SDS011;1347;42.122;24.746;2023-02-10T12:44:50;15.23;;;12.73;;
2674;SDS011;1347;42.122;24.746;2023-02-10T12:47:30;14.97;;;11.07;;
2674;SDS011;1347;42.122;24.746;2023-02-10T12:50:20;18.33;;;13.07;;
2674;SDS011;1347;42.122;24.746;2023-02-10T12:52:57;17.27;;;14.60;;
2674;SDS011;1347;42.122;24.746;2023-02-10T12:55:31;14.83;;;12.83;;
2674;SDS011;1347;42.122;24.746;2023-02-10T12:58:05;14.57;;;10.80;;
2674;SDS011;1347;42.122;24.746;2023-02-10T13:00:39;12.73;;;11.10;;
2674;SDS011;1347;42.122;24.746;2023-02-10T13:03:13;16.00;;;11.83;;
2674;SDS011;1347;42.122;24.746;2023-02-10T13:05:46;17.47;;;11.20;;
2674;SDS011;1347;42.122;24.746;2023-02-10T13:08:17;14.23;;;11.53;;
2674;SDS011;1347;42.122;24.746;2023-02-10T13:10:50;20.37;;;11.70;;
2674;SDS011;1347;42.122;24.746;2023-02-10T13:13:21;15.77;;;12.00;;
2674;SDS011;1347;42.122;24.746;2023-02-10T13:15:52;14.97;;;10.43;;
2674;SDS011;1347;42.122;24.746;2023-02-10T13:18:24;15.67;;;11.50;;
2674;SDS011;1347;42.122;24.746;2023-02-10T13:20:58;16.30;;;10.03;;
2674;SDS011;1347;42.122;24.746;2023-02-10T13:23:31;13.50;;;10.30;;
2674;SDS011;1347;42.122;24.746;2023-02-10T13:26:11;16.27;;;11.23;;
2674;SDS011;1347;42.122;24.746;2023-02-10T13:28:52;13.90;;;10.53;;
2674;SDS011;1347;42.122;24.746;2023-02-10T13:31:32;20.63;;;14.37;;
2674;SDS011;1347;42.122;24.746;2023-02-10T13:34:15;14.97;;;11.87;;
2674;SDS011;1347;42.122;24.746;2023-02-10T13:36:47;13.67;;;10.50;;
2674;SDS011;1347;42.122;24.746;2023-02-10T13:39:20;15.50;;;11.03;;
2674;SDS011;1347;42.122;24.746;2023-02-10T13:42:02;19.77;;;12.07;;
2674;SDS011;1347;42.122;24.746;2023-02-10T13:44:33;17.17;;;10.57;;
2674;SDS011;1347;42.122;24.746;2023-02-10T13:47:11;16.77;;;10.67;;
2674;SDS011;1347;42.122;24.746;2023-02-10T13:49:49;19.13;;;12.27;;
2674;SDS011;1347;42.122;24.746;2023-02-10T13:52:19;17.43;;;10.47;;
2674;SDS011;1347;42.122;24.746;2023-02-10T13:54:53;16.70;;;9.93;;
2674;SDS011;1347;42.122;24.746;2023-02-10T13:57:26;15.53;;;11.20;;
2674;SDS011;1347;42.122;24.746;2023-02-10T14:00:04;14.80;;;11.00;;
2674;SDS011;1347;42.122;24.746;2023-02-10T14:02:37;17.27;;;11.47;;
2674;SDS011;1347;42.122;24.746;2023-02-10T14:07:53;22.60;;;11.40;;
2674;SDS011;1347;42.122;24.746;2023-02-10T14:13:03;16.87;;;10.73;;
2674;SDS011;1347;42.122;24.746;2023-02-10T14:15:32;20.00;;;10.67;;
2674;SDS011;1347;42.122;24.746;2023-02-10T14:18:02;14.80;;;10.77;;
2674;SDS011;1347;42.122;24.746;2023-02-10T14:20:36;19.03;;;12.93;;
2674;SDS011;1347;42.122;24.746;2023-02-10T14:23:05;17.50;;;9.17;;
2674;SDS011;1347;42.122;24.746;2023-02-10T14:25:34;13.23;;;10.00;;
2674;SDS011;1347;42.122;24.746;2023-02-10T14:28:04;18.13;;;11.10;;
2674;SDS011;1347;42.122;24.746;2023-02-10T14:30:44;26.10;;;12.77;;
2674;SDS011;1347;42.122;24.746;2023-02-10T14:33:19;19.53;;;12.43;;
2674;SDS011;1347;42.122;24.746;2023-02-10T14:35:50;16.40;;;10.70;;
2674;SDS011;1347;42.122;24.746;2023-02-10T14:38:19;15.27;;;10.07;;
2674;SDS011;1347;42.122;24.746;2023-02-10T14:40:48;16.50;;;11.20;;
2674;SDS011;1347;42.122;24.746;2023-02-10T14:43:20;15.63;;;9.83;;
2674;SDS011;1347;42.122;24.746;2023-02-10T14:45:49;14.53;;;10.20;;
2674;SDS011;1347;42.122;24.746;2023-02-10T14:48:17;19.67;;;11.50;;
2674;SDS011;1347;42.122;24.746;2023-02-10T14:50:57;14.60;;;10.40;;
2674;SDS011;1347;42.122;24.746;2023-02-10T14:53:25;12.40;;;8.50;;
2674;SDS011;1347;42.122;24.746;2023-02-10T14:55:53;14.17;;;8.97;;
2674;SDS011;1347;42.122;24.746;2023-02-10T14:58:21;16.60;;;9.10;;
2674;SDS011;1347;42.122;24.746;2023-02-10T15:00:54;19.33;;;11.07;;
2674;SDS011;1347;42.122;24.746;2023-02-10T15:03:25;16.03;;;9.20;;
2674;SDS011;1347;42.122;24.746;2023-02-10T15:05:52;17.20;;;10.60;;
2674;SDS011;1347;42.122;24.746;2023-02-10T15:08:28;11.33;;;8.33;;